sensor_id;sensor_type;location;lat;lon;timestamp;pressure;altitude;pressure_sealevel;temperature;humidity
51123;BME280;37162;41.724;13.346;2023-06-22T00:01:56;97179.00;;;22.00;71.87
51123;BME280;37162;41.724;13.346;2023-06-22T00:04:21;97181.69;;;22.00;72.23
51123;BME280;37162;41.724;13.346;2023-06-22T00:06:46;97181.69;;;22.00;72.03
51123;BME280;37162;41.724;13.346;2023-06-22T00:09:12;97176.28;;;22.00;72.30
51123;BME280;37162;41.724;13.346;2023-06-22T00:11:37;97184.41;;;22.00;72.40
51123;BME280;37162;41.724;13.346;2023-06-22T00:14:04;97186.28;;;22.00;72.11
51123;BME280;37162;41.724;13.346;2023-06-22T00:16:31;97181.16;;;21.98;72.20
51123;BME280;37162;41.724;13.346;2023-06-22T00:18:57;97180.06;;;21.99;72.25
51123;BME280;37162;41.724;13.346;2023-06-22T00:21:29;97181.97;;;21.99;72.33
51123;BME280;37162;41.724;13.346;2023-06-22T00:23:54;97183.03;;;21.98;71.98
51123;BME280;37162;41.724;13.346;2023-06-22T00:26:20;97183.84;;;21.98;71.96
51123;BME280;37162;41.724;13.346;2023-06-22T00:28:47;97181.16;;;21.98;71.91
51123;BME280;37162;41.724;13.346;2023-06-22T00:31:12;97183.84;;;21.98;72.52
51123;BME280;37162;41.724;13.346;2023-06-22T00:33:38;97183.84;;;21.98;72.12
51123;BME280;37162;41.724;13.346;2023-06-22T00:36:04;97183.03;;;21.98;72.32
51123;BME280;37162;41.724;13.346;2023-06-22T00:38:29;97181.16;;;21.98;72.27
51123;BME280;37162;41.724;13.346;2023-06-22T00:40:55;97175.72;;;21.98;72.18
51123;BME280;37162;41.724;13.346;2023-06-22T00:43:20;97174.06;;;21.97;71.96
51123;BME280;37162;41.724;13.346;2023-06-22T00:45:46;97168.66;;;21.97;71.98
51123;BME280;37162;41.724;13.346;2023-06-22T00:48:12;97174.91;;;21.98;72.17
51123;BME280;37162;41.724;13.346;2023-06-22T00:50:39;97171.09;;;21.93;72.06
51123;BME280;37162;41.724;13.346;2023-06-22T00:53:06;97174.91;;;21.98;72.15
51123;BME280;37162;41.724;13.346;2023-06-22T00:55:37;97169.75;;;21.96;72.18
51123;BME280;37162;41.724;13.346;2023-06-22T00:58:05;97161.84;;;21.89;72.21
51123;BME280;37162;41.724;13.346;2023-06-22T01:00:33;97167.03;;;21.96;72.04
51123;BME280;37162;41.724;13.346;2023-06-22T01:02:59;97160.00;;;21.95;72.40
51123;BME280;37162;41.724;13.346;2023-06-22T01:05:24;97163.78;;;21.94;72.12
51123;BME280;37162;41.724;13.346;2023-06-22T01:11:08;97157.56;;;21.93;72.32
51123;BME280;37162;41.724;13.346;2023-06-22T01:16:33;97161.34;;;21.92;72.30
51123;BME280;37162;41.724;13.346;2023-06-22T01:21:57;97160.50;;;21.92;72.37
51123;BME280;37162;41.724;13.346;2023-06-22T01:24:27;97152.38;;;21.92;72.17
51123;BME280;37162;41.724;13.346;2023-06-22T01:27:08;97162.38;;;21.91;72.45
51123;BME280;37162;41.724;13.346;2023-06-22T01:29:40;97155.34;;;21.90;72.50
51123;BME280;37162;41.724;13.346;2023-06-22T01:32:09;97156.16;;;21.91;72.54
51123;BME280;37162;41.724;13.346;2023-06-22T01:34:37;97158.88;;;21.91;72.55
51123;BME280;37162;41.724;13.346;2023-06-22T01:37:05;97157.25;;;21.90;72.33
51123;BME280;37162;41.724;13.346;2023-06-22T01:39:31;97152.66;;;21.90;72.23
51123;BME280;37162;41.724;13.346;2023-06-22T01:41:57;97152.91;;;21.89;72.36
51123;BME280;37162;41.724;13.346;2023-06-22T01:44:25;97141.47;;;21.82;72.55
51123;BME280;37162;41.724;13.346;2023-06-22T01:46:51;97146.69;;;21.88;72.63
51123;BME280;37162;41.724;13.346;2023-06-22T01:49:17;97149.41;;;21.88;72.23
51123;BME280;37162;41.724;13.346;2023-06-22T01:51:43;97145.88;;;21.88;72.40
51123;BME280;37162;41.724;13.346;2023-06-22T01:54:08;97147.75;;;21.87;72.76
51123;BME280;37162;41.724;13.346;2023-06-22T01:56:34;97144.00;;;21.88;72.76
51123;BME280;37162;41.724;13.346;2023-06-22T01:59:25;97142.31;;;21.87;72.57
51123;BME280;37162;41.724;13.346;2023-06-22T02:02:08;97138.56;;;21.88;72.43
51123;BME280;37162;41.724;13.346;2023-06-22T02:07:09;97136.69;;;21.89;72.16
51123;BME280;37162;41.724;13.346;2023-06-22T02:09:38;97133.16;;;21.88;72.36
51123;BME280;37162;41.724;13.346;2023-06-22T02:12:09;97135.88;;;21.88;72.46
51123;BME280;37162;41.724;13.346;2023-06-22T02:14:36;97131.50;;;21.87;72.44
51123;BME280;37162;41.724;13.346;2023-06-22T02:17:03;97126.94;;;21.88;72.69
51123;BME280;37162;41.724;13.346;2023-06-22T02:19:35;97122.34;;;21.88;72.56
51123;BME280;37162;41.724;13.346;2023-06-22T02:22:01;97124.22;;;21.88;72.26
51123;BME280;37162;41.724;13.346;2023-06-22T02:24:26;97113.41;;;21.88;72.27
51123;BME280;37162;41.724;13.346;2023-06-22T02:26:52;97117.97;;;21.87;72.72
51123;BME280;37162;41.724;13.346;2023-06-22T02:29:17;97116.03;;;21.83;72.18
51123;BME280;37162;41.724;13.346;2023-06-22T02:31:43;97114.41;;;21.82;72.48
51123;BME280;37162;41.724;13.346;2023-06-22T02:34:08;97123.41;;;21.87;72.66
51123;BME280;37162;41.724;13.346;2023-06-22T02:36:34;97124.22;;;21.88;72.14
51123;BME280;37162;41.724;13.346;2023-06-22T02:38:59;97123.16;;;21.89;72.25
51123;BME280;37162;41.724;13.346;2023-06-22T02:41:27;97126.94;;;21.88;72.41
51123;BME280;37162;41.724;13.346;2023-06-22T02:43:52;97132.34;;;21.88;72.37
51123;BME280;37162;41.724;13.346;2023-06-22T02:46:17;97128.56;;;21.89;72.21
51123;BME280;37162;41.724;13.346;2023-06-22T02:48:43;97127.75;;;21.88;72.38
51123;BME280;37162;41.724;13.346;2023-06-22T02:51:08;97131.50;;;21.87;72.53
51123;BME280;37162;41.724;13.346;2023-06-22T02:53:34;97123.94;;;21.84;72.37
51123;BME280;37162;41.724;13.346;2023-06-22T02:56:04;97128.81;;;21.87;72.27
51123;BME280;37162;41.724;13.346;2023-06-22T02:58:32;97135.88;;;21.88;72.31
51123;BME280;37162;41.724;13.346;2023-06-22T03:01:04;97136.09;;;21.87;72.22
51123;BME280;37162;41.724;13.346;2023-06-22T03:03:30;97136.91;;;21.87;72.70
51123;BME280;37162;41.724;13.346;2023-06-22T03:05:56;97134.22;;;21.87;72.40
51123;BME280;37162;41.724;13.346;2023-06-22T03:08:21;97136.91;;;21.87;72.47
51123;BME280;37162;41.724;13.346;2023-06-22T03:10:46;97136.38;;;21.85;72.46
51123;BME280;37162;41.724;13.346;2023-06-22T03:13:12;97146.94;;;21.87;72.19
51123;BME280;37162;41.724;13.346;2023-06-22T03:15:37;97143.41;;;21.86;72.42
51123;BME280;37162;41.724;13.346;2023-06-22T03:18:03;97146.94;;;21.87;72.39
51123;BME280;37162;41.724;13.346;2023-06-22T03:20:28;97147.75;;;21.87;72.20
51123;BME280;37162;41.724;13.346;2023-06-22T03:22:58;97142.31;;;21.87;72.64
51123;BME280;37162;41.724;13.346;2023-06-22T03:25:24;97142.84;;;21.84;72.56
51123;BME280;37162;41.724;13.346;2023-06-22T03:27:49;97141.50;;;21.87;72.52
51123;BME280;37162;41.724;13.346;2023-06-22T03:30:15;97143.41;;;21.86;72.19
51123;BME280;37162;41.724;13.346;2023-06-22T03:32:40;97139.06;;;21.85;72.21
51123;BME280;37162;41.724;13.346;2023-06-22T03:35:06;97143.41;;;21.86;72.46
51123;BME280;37162;41.724;13.346;2023-06-22T03:37:32;97142.59;;;21.86;72.07
51123;BME280;37162;41.724;13.346;2023-06-22T03:39:57;97138.25;;;21.85;72.55
51123;BME280;37162;41.724;13.346;2023-06-22T03:42:23;97144.50;;;21.85;72.56
51123;BME280;37162;41.724;13.346;2023-06-22T03:44:48;97140.97;;;21.85;72.69
51123;BME280;37162;41.724;13.346;2023-06-22T03:47:13;97137.44;;;21.84;72.62
51123;BME280;37162;41.724;13.346;2023-06-22T03:49:39;97140.16;;;21.84;72.46
51123;BME280;37162;41.724;13.346;2023-06-22T03:52:05;97140.16;;;21.84;72.29
51123;BME280;37162;41.724;13.346;2023-06-22T03:54:31;97136.63;;;21.84;72.36
51123;BME280;37162;41.724;13.346;2023-06-22T03:56:57;97140.16;;;21.84;72.14
51123;BME280;37162;41.724;13.346;2023-06-22T03:59:23;97139.56;;;21.82;72.31
51123;BME280;37162;41.724;13.346;2023-06-22T04:01:49;97143.66;;;21.85;72.16
51123;BME280;37162;41.724;13.346;2023-06-22T04:04:16;97137.63;;;21.78;72.00
51123;BME280;37162;41.724;13.346;2023-06-22T04:06:41;97142.84;;;21.84;71.97
51123;BME280;37162;41.724;13.346;2023-06-22T04:09:06;97141.78;;;21.85;72.07
51123;BME280;37162;41.724;13.346;2023-06-22T04:11:32;97139.06;;;21.85;72.58
51123;BME280;37162;41.724;13.346;2023-06-22T04:13:57;97138.25;;;21.85;72.24
51123;BME280;37162;41.724;13.346;2023-06-22T04:16:23;97138.25;;;21.85;72.55
51123;BME280;37162;41.724;13.346;2023-06-22T04:18:48;97140.16;;;21.84;72.72
51123;BME280;37162;41.724;13.346;2023-06-22T04:21:14;97124.91;;;21.78;72.70
51123;BME280;37162;41.724;13.346;2023-06-22T04:23:39;97139.06;;;21.85;72.42
51123;BME280;37162;41.724;13.346;2023-06-22T04:26:05;97139.06;;;21.85;72.31
51123;BME280;37162;41.724;13.346;2023-06-22T04:28:30;97136.63;;;21.84;72.40
51123;BME280;37162;41.724;13.346;2023-06-22T04:31:01;97128.75;;;21.82;72.57
51123;BME280;37162;41.724;13.346;2023-06-22T04:33:27;97133.34;;;21.82;72.57
51123;BME280;37162;41.724;13.346;2023-06-22T04:35:55;97139.06;;;21.85;72.39
51123;BME280;37162;41.724;13.346;2023-06-22T04:38:22;97129.88;;;21.86;72.23
51123;BME280;37162;41.724;13.346;2023-06-22T04:40:48;97125.22;;;21.82;72.50
51123;BME280;37162;41.724;13.346;2023-06-22T04:43:13;97127.19;;;21.86;72.35
51123;BME280;37162;41.724;13.346;2023-06-22T04:45:39;97133.41;;;21.87;72.27
51123;BME280;37162;41.724;13.346;2023-06-22T04:48:05;97129.88;;;21.86;72.22
51123;BME280;37162;41.724;13.346;2023-06-22T04:50:30;97130.69;;;21.87;72.21
51123;BME280;37162;41.724;13.346;2023-06-22T04:52:56;97128.81;;;21.87;72.49
51123;BME280;37162;41.724;13.346;2023-06-22T04:55:21;97116.88;;;21.83;72.66
51123;BME280;37162;41.724;13.346;2023-06-22T04:57:48;97126.94;;;21.88;72.63
51123;BME280;37162;41.724;13.346;2023-06-22T05:00:23;97128.00;;;21.87;72.27
51123;BME280;37162;41.724;13.346;2023-06-22T05:02:49;97123.41;;;21.87;72.67
51123;BME280;37162;41.724;13.346;2023-06-22T05:05:14;97119.81;;;21.82;72.63
51123;BME280;37162;41.724;13.346;2023-06-22T05:07:46;97129.66;;;21.88;72.64
51123;BME280;37162;41.724;13.346;2023-06-22T05:10:13;97119.81;;;21.82;72.33
51123;BME280;37162;41.724;13.346;2023-06-22T05:12:40;97122.34;;;21.88;72.77
51123;BME280;37162;41.724;13.346;2023-06-22T05:15:07;97124.22;;;21.88;72.59
51123;BME280;37162;41.724;13.346;2023-06-22T05:17:33;97127.75;;;21.88;72.37
51123;BME280;37162;41.724;13.346;2023-06-22T05:19:59;97126.69;;;21.89;72.76
51123;BME280;37162;41.724;13.346;2023-06-22T05:22:24;97126.69;;;21.89;72.64
51123;BME280;37162;41.724;13.346;2023-06-22T05:24:49;97132.91;;;21.90;72.48
51123;BME280;37162;41.724;13.346;2023-06-22T05:27:15;97119.88;;;21.87;72.19
51123;BME280;37162;41.724;13.346;2023-06-22T05:29:41;97127.50;;;21.90;72.28
51123;BME280;37162;41.724;13.346;2023-06-22T05:32:07;97118.50;;;21.84;72.35
51123;BME280;37162;41.724;13.346;2023-06-22T05:34:33;97132.63;;;21.91;72.59
51123;BME280;37162;41.724;13.346;2023-06-22T05:36:59;97132.63;;;21.91;72.56
51123;BME280;37162;41.724;13.346;2023-06-22T05:39:24;97134.28;;;21.92;72.27
51123;BME280;37162;41.724;13.346;2023-06-22T05:41:50;97122.34;;;21.88;72.26
51123;BME280;37162;41.724;13.346;2023-06-22T05:44:16;97128.03;;;21.92;72.49
51123;BME280;37162;41.724;13.346;2023-06-22T05:46:43;97125.91;;;21.94;72.27
51123;BME280;37162;41.724;13.346;2023-06-22T05:49:13;97146.47;;;21.95;72.59
51123;BME280;37162;41.724;13.346;2023-06-22T05:51:40;97134.84;;;21.94;72.22
51123;BME280;37162;41.724;13.346;2023-06-22T05:54:05;97139.97;;;21.96;72.08
51123;BME280;37162;41.724;13.346;2023-06-22T05:56:31;97142.69;;;21.96;72.40
51123;BME280;37162;41.724;13.346;2023-06-22T05:58:57;97142.94;;;21.94;72.35
51123;BME280;37162;41.724;13.346;2023-06-22T06:01:22;97142.94;;;21.94;72.37
51123;BME280;37162;41.724;13.346;2023-06-22T06:03:47;97147.88;;;21.98;72.21
51123;BME280;37162;41.724;13.346;2023-06-22T06:06:14;97144.91;;;21.99;72.14
51123;BME280;37162;41.724;13.346;2023-06-22T06:08:40;97147.59;;;21.99;72.21
51123;BME280;37162;41.724;13.346;2023-06-22T06:11:06;97134.03;;;21.94;72.08
51123;BME280;37162;41.724;13.346;2023-06-22T06:13:31;97141.91;;;22.01;72.26
51123;BME280;37162;41.724;13.346;2023-06-22T06:15:57;97138.13;;;22.02;71.94
51123;BME280;37162;41.724;13.346;2023-06-22T06:18:22;97138.13;;;22.02;71.97
51123;BME280;37162;41.724;13.346;2023-06-22T06:20:48;97139.78;;;22.03;71.95
51123;BME280;37162;41.724;13.346;2023-06-22T06:23:14;97137.09;;;22.03;72.45
51123;BME280;37162;41.724;13.346;2023-06-22T06:25:40;97134.38;;;22.03;71.83
51123;BME280;37162;41.724;13.346;2023-06-22T06:28:05;97145.75;;;22.05;72.19
51123;BME280;37162;41.724;13.346;2023-06-22T06:30:31;97150.09;;;22.06;72.30
51123;BME280;37162;41.724;13.346;2023-06-22T06:32:56;97147.38;;;22.06;72.27
51123;BME280;37162;41.724;13.346;2023-06-22T06:35:22;97158.78;;;22.08;71.88
51123;BME280;37162;41.724;13.346;2023-06-22T06:37:49;97160.41;;;22.09;72.34
51123;BME280;37162;41.724;13.346;2023-06-22T06:40:16;97144.16;;;22.09;72.16
51123;BME280;37162;41.724;13.346;2023-06-22T06:42:45;97155.53;;;22.11;71.85
51123;BME280;37162;41.724;13.346;2023-06-22T06:45:19;97158.03;;;22.12;72.08
51123;BME280;37162;41.724;13.346;2023-06-22T06:47:45;97151.56;;;22.13;71.97
51123;BME280;37162;41.724;13.346;2023-06-22T06:50:11;97157.78;;;22.14;72.12
51123;BME280;37162;41.724;13.346;2023-06-22T06:52:36;97151.56;;;22.13;71.76
51123;BME280;37162;41.724;13.346;2023-06-22T06:55:02;97152.38;;;22.14;72.06
51123;BME280;37162;41.724;13.346;2023-06-22T06:57:29;97140.38;;;22.10;71.82
51123;BME280;37162;41.724;13.346;2023-06-22T06:59:58;97151.28;;;22.15;72.03
51123;BME280;37162;41.724;13.346;2023-06-22T07:02:24;97149.41;;;22.15;71.82
51123;BME280;37162;41.724;13.346;2023-06-22T07:04:49;97143.34;;;22.08;71.76
51123;BME280;37162;41.724;13.346;2023-06-22T07:07:15;97161.03;;;22.16;71.73
51123;BME280;37162;41.724;13.346;2023-06-22T07:09:40;97161.03;;;22.16;71.66
51123;BME280;37162;41.724;13.346;2023-06-22T07:12:06;97150.75;;;22.13;72.09
51123;BME280;37162;41.724;13.346;2023-06-22T07:14:32;97149.41;;;22.15;71.66
51123;BME280;37162;41.724;13.346;2023-06-22T07:16:58;97142.00;;;22.11;71.75
51123;BME280;37162;41.724;13.346;2023-06-22T07:19:25;97151.88;;;22.17;71.77
51123;BME280;37162;41.724;13.346;2023-06-22T07:21:51;97156.19;;;22.18;71.93
51123;BME280;37162;41.724;13.346;2023-06-22T07:24:16;97154.31;;;22.18;71.85
51123;BME280;37162;41.724;13.346;2023-06-22T07:26:41;97154.31;;;22.18;72.13
51123;BME280;37162;41.724;13.346;2023-06-22T07:29:11;97148.06;;;22.18;71.69
51123;BME280;37162;41.724;13.346;2023-06-22T07:31:37;97154.03;;;22.20;71.61
51123;BME280;37162;41.724;13.346;2023-06-22T07:34:02;97157.56;;;22.20;71.81
51123;BME280;37162;41.724;13.346;2023-06-22T07:36:29;97154.84;;;22.20;71.66
51123;BME280;37162;41.724;13.346;2023-06-22T07:38:55;97156.75;;;22.20;71.97
51123;BME280;37162;41.724;13.346;2023-06-22T07:41:21;97155.13;;;22.19;71.86
51123;BME280;37162;41.724;13.346;2023-06-22T07:43:46;97158.63;;;22.19;71.88
51123;BME280;37162;41.724;13.346;2023-06-22T07:46:12;97160.25;;;22.20;72.03
51123;BME280;37162;41.724;13.346;2023-06-22T07:48:37;97164.63;;;22.22;71.92
51123;BME280;37162;41.724;13.346;2023-06-22T07:51:03;97168.16;;;22.22;72.11
51123;BME280;37162;41.724;13.346;2023-06-22T07:53:28;97157.31;;;22.22;72.03
51123;BME280;37162;41.724;13.346;2023-06-22T07:55:54;97160.84;;;22.23;71.77
51123;BME280;37162;41.724;13.346;2023-06-22T07:58:19;97158.13;;;22.23;71.82
51123;BME280;37162;41.724;13.346;2023-06-22T08:00:46;97163.03;;;22.26;71.74
51123;BME280;37162;41.724;13.346;2023-06-22T08:03:12;97164.66;;;22.27;71.66
51123;BME280;37162;41.724;13.346;2023-06-22T08:05:38;97170.91;;;22.27;72.12
51123;BME280;37162;41.724;13.346;2023-06-22T08:08:04;97170.63;;;22.29;71.99
51123;BME280;37162;41.724;13.346;2023-06-22T08:10:29;97167.91;;;22.29;71.80
51123;BME280;37162;41.724;13.346;2023-06-22T08:12:55;97161.16;;;22.26;71.59
51123;BME280;37162;41.724;13.346;2023-06-22T08:15:20;97167.63;;;22.25;71.70
51123;BME280;37162;41.724;13.346;2023-06-22T08:17:47;97167.09;;;22.28;71.60
51123;BME280;37162;41.724;13.346;2023-06-22T08:20:13;97167.09;;;22.28;71.89
51123;BME280;37162;41.724;13.346;2023-06-22T08:22:40;97167.97;;;22.34;71.78
51123;BME280;37162;41.724;13.346;2023-06-22T08:25:06;97170.44;;;22.35;71.62
51123;BME280;37162;41.724;13.346;2023-06-22T08:27:31;97170.44;;;22.35;71.75
51123;BME280;37162;41.724;13.346;2023-06-22T08:29:58;97174.78;;;22.36;71.85
51123;BME280;37162;41.724;13.346;2023-06-22T08:32:25;97169.66;;;22.40;71.71
51123;BME280;37162;41.724;13.346;2023-06-22T08:34:53;97168.59;;;22.41;71.40
51123;BME280;37162;41.724;13.346;2023-06-22T08:37:19;97161.28;;;22.41;71.80
51123;BME280;37162;41.724;13.346;2023-06-22T08:39:44;97166.41;;;22.43;71.49
51123;BME280;37162;41.724;13.346;2023-06-22T08:42:09;97158.06;;;22.44;71.31
51123;BME280;37162;41.724;13.346;2023-06-22T08:44:35;97167.81;;;22.45;71.78
51123;BME280;37162;41.724;13.346;2023-06-22T08:47:00;97172.97;;;22.47;71.70
51123;BME280;37162;41.724;13.346;2023-06-22T08:49:27;97161.81;;;22.43;71.47
51123;BME280;37162;41.724;13.346;2023-06-22T08:51:52;97166.22;;;22.50;71.16
51123;BME280;37162;41.724;13.346;2023-06-22T08:54:21;97168.41;;;22.53;71.50
51123;BME280;37162;41.724;13.346;2023-06-22T08:56:46;97175.47;;;22.54;71.62
51123;BME280;37162;41.724;13.346;2023-06-22T08:59:12;97177.09;;;22.55;71.49
51123;BME280;37162;41.724;13.346;2023-06-22T09:01:37;97176.00;;;22.56;71.17
51123;BME280;37162;41.724;13.346;2023-06-22T09:04:03;97170.31;;;22.57;71.09
51123;BME280;37162;41.724;13.346;2023-06-22T09:06:31;97169.78;;;22.55;71.08
51123;BME280;37162;41.724;13.346;2023-06-22T09:08:57;97165.19;;;22.56;71.11
51123;BME280;37162;41.724;13.346;2023-06-22T09:11:25;97175.78;;;22.62;71.03
51123;BME280;37162;41.724;13.346;2023-06-22T09:13:50;97177.44;;;22.63;71.09
51123;BME280;37162;41.724;13.346;2023-06-22T09:16:17;97181.78;;;22.64;71.05
51123;BME280;37162;41.724;13.346;2023-06-22T09:18:45;97170.13;;;22.64;71.21
51123;BME280;37162;41.724;13.346;2023-06-22T09:21:12;97176.91;;;22.66;71.42
51123;BME280;37162;41.724;13.346;2023-06-22T09:23:38;97172.06;;;22.68;71.04
51123;BME280;37162;41.724;13.346;2023-06-22T09:26:03;97166.59;;;22.63;70.79
51123;BME280;37162;41.724;13.346;2023-06-22T09:28:29;97181.53;;;22.71;71.17
51123;BME280;37162;41.724;13.346;2023-06-22T09:30:54;97179.41;;;22.73;71.08
51123;BME280;37162;41.724;13.346;2023-06-22T09:33:23;97176.41;;;22.75;71.07
51123;BME280;37162;41.724;13.346;2023-06-22T09:35:49;97181.56;;;22.76;70.69
51123;BME280;37162;41.724;13.346;2023-06-22T09:38:16;97181.34;;;22.78;70.63
51123;BME280;37162;41.724;13.346;2023-06-22T09:40:41;97170.69;;;22.71;70.67
51123;BME280;37162;41.724;13.346;2023-06-22T09:43:07;97189.19;;;22.79;70.88
51123;BME280;37162;41.724;13.346;2023-06-22T09:45:32;97181.88;;;22.80;70.93
51123;BME280;37162;41.724;13.346;2023-06-22T09:47:58;97184.31;;;22.81;71.01
51123;BME280;37162;41.724;13.346;2023-06-22T09:50:23;97184.06;;;22.83;70.49
51123;BME280;37162;41.724;13.346;2023-06-22T09:52:49;97183.00;;;22.84;70.95
51123;BME280;37162;41.724;13.346;2023-06-22T09:55:20;97182.72;;;22.85;70.91
51123;BME280;37162;41.724;13.346;2023-06-22T09:57:45;97181.63;;;22.86;70.80
51123;BME280;37162;41.724;13.346;2023-06-22T10:00:11;97190.34;;;22.88;70.79
51123;BME280;37162;41.724;13.346;2023-06-22T10:02:39;97182.22;;;22.88;70.39
51123;BME280;37162;41.724;13.346;2023-06-22T10:05:05;97184.69;;;22.90;70.49
51123;BME280;37162;41.724;13.346;2023-06-22T10:07:30;97187.16;;;22.91;70.48
51123;BME280;37162;41.724;13.346;2023-06-22T10:09:56;97181.47;;;22.93;70.40
51123;BME280;37162;41.724;13.346;2023-06-22T10:12:21;97188.50;;;22.94;70.44
51123;BME280;37162;41.724;13.346;2023-06-22T10:14:46;97182.00;;;22.95;70.58
51123;BME280;37162;41.724;13.346;2023-06-22T10:17:12;97183.66;;;22.96;70.28
51123;BME280;37162;41.724;13.346;2023-06-22T10:19:37;97188.81;;;22.98;70.15
51123;BME280;37162;41.724;13.346;2023-06-22T10:22:04;97182.31;;;22.99;70.51
51123;BME280;37162;41.724;13.346;2023-06-22T10:24:30;97186.63;;;23.00;70.44
51123;BME280;37162;41.724;13.346;2023-06-22T10:26:55;97178.50;;;23.00;70.22
51123;BME280;37162;41.724;13.346;2023-06-22T10:29:21;97180.72;;;23.03;70.07
51123;BME280;37162;41.724;13.346;2023-06-22T10:31:46;97186.13;;;23.03;69.88
51123;BME280;37162;41.724;13.346;2023-06-22T10:34:12;97181.50;;;23.03;70.27
51123;BME280;37162;41.724;13.346;2023-06-22T10:36:38;97177.72;;;23.04;70.39
51123;BME280;37162;41.724;13.346;2023-06-22T10:39:03;97182.91;;;23.06;70.33
51123;BME280;37162;41.724;13.346;2023-06-22T10:41:29;97181.53;;;23.08;69.87
51123;BME280;37162;41.724;13.346;2023-06-22T10:43:56;97178.84;;;23.08;69.94
51123;BME280;37162;41.724;13.346;2023-06-22T10:46:23;97175.03;;;23.09;69.98
51123;BME280;37162;41.724;13.346;2023-06-22T10:48:48;97177.50;;;23.11;69.89
51123;BME280;37162;41.724;13.346;2023-06-22T10:51:14;97173.72;;;23.12;69.84
51123;BME280;37162;41.724;13.346;2023-06-22T10:53:39;97179.94;;;23.12;69.83
51123;BME280;37162;41.724;13.346;2023-06-22T10:56:05;97176.16;;;23.13;69.71
51123;BME280;37162;41.724;13.346;2023-06-22T10:58:30;97172.34;;;23.14;69.81
51123;BME280;37162;41.724;13.346;2023-06-22T11:00:56;97168.84;;;23.14;69.68
51123;BME280;37162;41.724;13.346;2023-06-22T11:03:21;97167.78;;;23.15;70.10
51123;BME280;37162;41.724;13.346;2023-06-22T11:05:46;97165.06;;;23.15;69.64
51123;BME280;37162;41.724;13.346;2023-06-22T11:08:13;97176.72;;;23.15;70.06
51123;BME280;37162;41.724;13.346;2023-06-22T11:10:38;97162.34;;;23.15;69.99
51123;BME280;37162;41.724;13.346;2023-06-22T11:13:03;97172.94;;;23.16;69.69
51123;BME280;37162;41.724;13.346;2023-06-22T11:15:30;97168.31;;;23.17;69.58
51123;BME280;37162;41.724;13.346;2023-06-22T11:17:55;97171.03;;;23.17;69.88
51123;BME280;37162;41.724;13.346;2023-06-22T11:20:21;97167.22;;;23.18;69.65
51123;BME280;37162;41.724;13.346;2023-06-22T11:22:46;97168.03;;;23.18;70.03
51123;BME280;37162;41.724;13.346;2023-06-22T11:25:12;97161.53;;;23.19;69.95
51123;BME280;37162;41.724;13.346;2023-06-22T11:27:37;97168.03;;;23.18;69.54
51123;BME280;37162;41.724;13.346;2023-06-22T11:30:04;97165.91;;;23.20;69.78
51123;BME280;37162;41.724;13.346;2023-06-22T11:32:29;97172.13;;;23.21;69.88
51123;BME280;37162;41.724;13.346;2023-06-22T11:34:55;97163.72;;;23.23;69.80
51123;BME280;37162;41.724;13.346;2023-06-22T11:37:20;97163.19;;;23.20;69.68
51123;BME280;37162;41.724;13.346;2023-06-22T11:39:45;97169.97;;;23.23;69.77
51123;BME280;37162;41.724;13.346;2023-06-22T11:42:11;97154.75;;;23.17;69.86
51123;BME280;37162;41.724;13.346;2023-06-22T11:44:36;97150.16;;;23.17;69.47
51123;BME280;37162;41.724;13.346;2023-06-22T11:47:02;97160.75;;;23.24;69.75
51123;BME280;37162;41.724;13.346;2023-06-22T11:49:30;97156.97;;;23.25;69.74
51123;BME280;37162;41.724;13.346;2023-06-22T11:51:55;97147.97;;;23.19;69.66
51123;BME280;37162;41.724;13.346;2023-06-22T11:54:21;97154.28;;;23.25;69.83
51123;BME280;37162;41.724;13.346;2023-06-22T11:56:46;97147.75;;;23.26;69.49
51123;BME280;37162;41.724;13.346;2023-06-22T11:59:12;97146.94;;;23.26;69.35
51123;BME280;37162;41.724;13.346;2023-06-22T12:01:37;97150.47;;;23.26;69.51
51123;BME280;37162;41.724;13.346;2023-06-22T12:04:03;97146.13;;;23.25;69.31
51123;BME280;37162;41.724;13.346;2023-06-22T12:06:31;97153.19;;;23.26;69.46
51123;BME280;37162;41.724;13.346;2023-06-22T12:08:57;97147.75;;;23.26;69.76
51123;BME280;37162;41.724;13.346;2023-06-22T12:11:23;97151.28;;;23.27;69.58
51123;BME280;37162;41.724;13.346;2023-06-22T12:13:48;97147.75;;;23.26;69.55
51123;BME280;37162;41.724;13.346;2023-06-22T12:16:14;97155.91;;;23.26;69.46
51123;BME280;37162;41.724;13.346;2023-06-22T12:18:39;97145.88;;;23.27;69.48
51123;BME280;37162;41.724;13.346;2023-06-22T12:21:04;97142.34;;;23.26;69.36
51123;BME280;37162;41.724;13.346;2023-06-22T12:23:30;97147.75;;;23.26;69.21
51123;BME280;37162;41.724;13.346;2023-06-22T12:25:55;97142.34;;;23.26;69.30
51123;BME280;37162;41.724;13.346;2023-06-22T12:28:21;97146.13;;;23.25;69.80
51123;BME280;37162;41.724;13.346;2023-06-22T12:30:46;97144.47;;;23.24;69.83
51123;BME280;37162;41.724;13.346;2023-06-22T12:33:11;97139.06;;;23.24;69.55
51123;BME280;37162;41.724;13.346;2023-06-22T12:35:37;97149.09;;;23.24;69.72
51123;BME280;37162;41.724;13.346;2023-06-22T12:38:02;97151.00;;;23.23;69.95
51123;BME280;37162;41.724;13.346;2023-06-22T12:40:28;97137.44;;;23.23;69.88
51123;BME280;37162;41.724;13.346;2023-06-22T12:42:54;97140.16;;;23.23;69.52
51123;BME280;37162;41.724;13.346;2023-06-22T12:45:19;97135.00;;;23.21;69.84
51123;BME280;37162;41.724;13.346;2023-06-22T12:47:46;97133.09;;;23.22;69.56
51123;BME280;37162;41.724;13.346;2023-06-22T12:50:12;97135.81;;;23.22;69.59
51123;BME280;37162;41.724;13.346;2023-06-22T12:52:38;97131.19;;;23.23;69.58
51123;BME280;37162;41.724;13.346;2023-06-22T12:55:05;97131.47;;;23.21;69.88
51123;BME280;37162;41.724;13.346;2023-06-22T12:57:31;97132.28;;;23.21;69.98